Aviation Digital Data Service (ADDS)

Output produced by METARs form (1022 UTC 28 August 2016)
found at http://aviationweather.gov/adds/metars/
 
KAND 280541Z 2806/2906 06005KT P6SM FEW060 
     FM281900 07009KT P6SM FEW250 
     FM282100 07009KT P6SM FEW040 
     FM290300 05005KT P6SM FEW045